sensor_id;sensor_type;location;lat;lon;timestamp;temperature;humidity
18654;DHT22;9456;47.824;16.228;2023-05-07T00:00:14;11.20;99.90
18654;DHT22;9456;47.824;16.228;2023-05-07T00:02:43;11.20;99.90
18654;DHT22;9456;47.824;16.228;2023-05-07T00:05:13;11.20;99.90
18654;DHT22;9456;47.824;16.228;2023-05-07T00:07:42;11.20;99.90
18654;DHT22;9456;47.824;16.228;2023-05-07T00:10:11;11.20;99.90
18654;DHT22;9456;47.824;16.228;2023-05-07T00:12:41;11.20;99.90
18654;DHT22;9456;47.824;16.228;2023-05-07T00:15:10;11.20;99.90
18654;DHT22;9456;47.824;16.228;2023-05-07T00:17:40;11.20;99.90
18654;DHT22;9456;47.824;16.228;2023-05-07T00:20:11;11.20;99.90
18654;DHT22;9456;47.824;16.228;2023-05-07T00:22:40;11.20;99.90
18654;DHT22;9456;47.824;16.228;2023-05-07T00:25:10;11.20;99.90
18654;DHT22;9456;47.824;16.228;2023-05-07T00:27:38;11.30;99.90
18654;DHT22;9456;47.824;16.228;2023-05-07T00:30:09;11.30;99.90
18654;DHT22;9456;47.824;16.228;2023-05-07T00:32:38;11.30;99.90
18654;DHT22;9456;47.824;16.228;2023-05-07T00:35:09;11.30;99.90
18654;DHT22;9456;47.824;16.228;2023-05-07T00:37:38;11.40;99.90
18654;DHT22;9456;47.824;16.228;2023-05-07T00:40:08;11.40;99.90
18654;DHT22;9456;47.824;16.228;2023-05-07T00:42:37;11.40;99.90
18654;DHT22;9456;47.824;16.228;2023-05-07T00:45:08;11.40;99.90
18654;DHT22;9456;47.824;16.228;2023-05-07T00:47:37;11.50;99.90
18654;DHT22;9456;47.824;16.228;2023-05-07T00:50:08;11.50;99.90
18654;DHT22;9456;47.824;16.228;2023-05-07T00:52:38;11.50;99.90
18654;DHT22;9456;47.824;16.228;2023-05-07T00:55:08;11.50;99.90
18654;DHT22;9456;47.824;16.228;2023-05-07T00:57:39;11.40;99.90
18654;DHT22;9456;47.824;16.228;2023-05-07T01:00:09;11.40;99.90
18654;DHT22;9456;47.824;16.228;2023-05-07T01:02:37;11.30;99.90
18654;DHT22;9456;47.824;16.228;2023-05-07T01:05:07;11.30;99.90
18654;DHT22;9456;47.824;16.228;2023-05-07T01:07:36;11.20;99.90
18654;DHT22;9456;47.824;16.228;2023-05-07T01:10:06;11.20;99.90
18654;DHT22;9456;47.824;16.228;2023-05-07T01:12:35;11.20;99.90
18654;DHT22;9456;47.824;16.228;2023-05-07T01:15:05;11.10;99.90
18654;DHT22;9456;47.824;16.228;2023-05-07T01:17:35;11.10;99.90
18654;DHT22;9456;47.824;16.228;2023-05-07T01:20:05;11.10;99.90
18654;DHT22;9456;47.824;16.228;2023-05-07T01:22:36;11.20;99.90
18654;DHT22;9456;47.824;16.228;2023-05-07T01:25:06;11.20;99.90
18654;DHT22;9456;47.824;16.228;2023-05-07T01:27:34;11.20;99.90
18654;DHT22;9456;47.824;16.228;2023-05-07T01:30:04;11.20;99.90
18654;DHT22;9456;47.824;16.228;2023-05-07T01:32:35;11.30;99.90
18654;DHT22;9456;47.824;16.228;2023-05-07T01:35:03;11.30;99.90
18654;DHT22;9456;47.824;16.228;2023-05-07T01:37:32;11.30;99.90
18654;DHT22;9456;47.824;16.228;2023-05-07T01:40:01;11.30;99.90
18654;DHT22;9456;47.824;16.228;2023-05-07T01:42:30;11.30;99.90
18654;DHT22;9456;47.824;16.228;2023-05-07T01:44:59;11.30;99.90
18654;DHT22;9456;47.824;16.228;2023-05-07T01:47:28;11.30;99.90
18654;DHT22;9456;47.824;16.228;2023-05-07T01:49:57;11.30;99.90
18654;DHT22;9456;47.824;16.228;2023-05-07T01:52:26;11.30;99.90
18654;DHT22;9456;47.824;16.228;2023-05-07T01:54:56;11.30;99.90
18654;DHT22;9456;47.824;16.228;2023-05-07T01:57:25;11.30;99.90
18654;DHT22;9456;47.824;16.228;2023-05-07T01:59:54;11.30;99.90
18654;DHT22;9456;47.824;16.228;2023-05-07T02:02:23;11.30;99.90
18654;DHT22;9456;47.824;16.228;2023-05-07T02:04:52;11.30;99.90
18654;DHT22;9456;47.824;16.228;2023-05-07T02:07:21;11.30;99.90
18654;DHT22;9456;47.824;16.228;2023-05-07T02:09:50;11.40;99.90
18654;DHT22;9456;47.824;16.228;2023-05-07T02:12:19;11.40;99.90
18654;DHT22;9456;47.824;16.228;2023-05-07T02:14:48;11.40;99.90
18654;DHT22;9456;47.824;16.228;2023-05-07T02:17:17;11.40;99.90
18654;DHT22;9456;47.824;16.228;2023-05-07T02:19:45;11.30;99.90
18654;DHT22;9456;47.824;16.228;2023-05-07T02:22:15;11.30;99.90
18654;DHT22;9456;47.824;16.228;2023-05-07T02:24:44;11.30;99.90
18654;DHT22;9456;47.824;16.228;2023-05-07T02:27:13;11.30;99.90
18654;DHT22;9456;47.824;16.228;2023-05-07T02:29:42;11.30;99.90
18654;DHT22;9456;47.824;16.228;2023-05-07T02:32:11;11.20;99.90
18654;DHT22;9456;47.824;16.228;2023-05-07T02:34:40;11.30;99.90
18654;DHT22;9456;47.824;16.228;2023-05-07T02:37:09;11.30;99.90
18654;DHT22;9456;47.824;16.228;2023-05-07T02:39:38;11.30;99.90
18654;DHT22;9456;47.824;16.228;2023-05-07T02:42:07;11.30;99.90
18654;DHT22;9456;47.824;16.228;2023-05-07T02:44:36;11.30;99.90
18654;DHT22;9456;47.824;16.228;2023-05-07T02:47:05;11.40;99.90
18654;DHT22;9456;47.824;16.228;2023-05-07T02:49:34;11.40;99.90
18654;DHT22;9456;47.824;16.228;2023-05-07T02:52:03;11.40;99.90
18654;DHT22;9456;47.824;16.228;2023-05-07T02:54:32;11.40;99.90
18654;DHT22;9456;47.824;16.228;2023-05-07T02:57:01;11.40;99.90
18654;DHT22;9456;47.824;16.228;2023-05-07T02:59:30;11.30;99.90
18654;DHT22;9456;47.824;16.228;2023-05-07T03:01:59;11.30;99.90
18654;DHT22;9456;47.824;16.228;2023-05-07T03:04:28;11.20;99.90
18654;DHT22;9456;47.824;16.228;2023-05-07T03:06:57;11.20;99.90
18654;DHT22;9456;47.824;16.228;2023-05-07T03:09:26;11.20;99.90
18654;DHT22;9456;47.824;16.228;2023-05-07T03:11:55;11.10;99.90
18654;DHT22;9456;47.824;16.228;2023-05-07T03:14:24;11.10;99.90
18654;DHT22;9456;47.824;16.228;2023-05-07T03:16:53;11.00;99.90
18654;DHT22;9456;47.824;16.228;2023-05-07T03:19:22;11.10;99.90
18654;DHT22;9456;47.824;16.228;2023-05-07T03:21:51;11.00;99.90
18654;DHT22;9456;47.824;16.228;2023-05-07T03:24:20;11.00;99.90
18654;DHT22;9456;47.824;16.228;2023-05-07T03:26:49;11.00;99.90
18654;DHT22;9456;47.824;16.228;2023-05-07T03:29:18;11.00;99.90
18654;DHT22;9456;47.824;16.228;2023-05-07T03:31:47;11.00;99.90
18654;DHT22;9456;47.824;16.228;2023-05-07T03:34:16;10.90;99.90
18654;DHT22;9456;47.824;16.228;2023-05-07T03:36:45;10.90;99.90
18654;DHT22;9456;47.824;16.228;2023-05-07T03:39:14;10.90;99.90
18654;DHT22;9456;47.824;16.228;2023-05-07T03:41:43;10.90;99.90
18654;DHT22;9456;47.824;16.228;2023-05-07T03:44:12;10.90;99.90
18654;DHT22;9456;47.824;16.228;2023-05-07T03:46:41;10.90;99.90
18654;DHT22;9456;47.824;16.228;2023-05-07T03:49:10;10.90;99.90
18654;DHT22;9456;47.824;16.228;2023-05-07T03:51:39;10.90;99.90
18654;DHT22;9456;47.824;16.228;2023-05-07T03:54:08;11.00;99.90
18654;DHT22;9456;47.824;16.228;2023-05-07T03:56:37;11.10;99.90
18654;DHT22;9456;47.824;16.228;2023-05-07T03:59:06;11.30;99.90
18654;DHT22;9456;47.824;16.228;2023-05-07T04:01:35;11.60;99.90
18654;DHT22;9456;47.824;16.228;2023-05-07T04:04:04;11.90;99.90
18654;DHT22;9456;47.824;16.228;2023-05-07T04:06:33;12.10;99.90
18654;DHT22;9456;47.824;16.228;2023-05-07T04:09:02;12.20;99.90
18654;DHT22;9456;47.824;16.228;2023-05-07T04:11:32;12.30;99.90
18654;DHT22;9456;47.824;16.228;2023-05-07T04:14:00;12.30;99.90
18654;DHT22;9456;47.824;16.228;2023-05-07T04:16:29;12.30;99.90
18654;DHT22;9456;47.824;16.228;2023-05-07T04:18:58;12.20;99.90
18654;DHT22;9456;47.824;16.228;2023-05-07T04:21:27;12.20;99.90
18654;DHT22;9456;47.824;16.228;2023-05-07T04:23:56;12.20;99.90
18654;DHT22;9456;47.824;16.228;2023-05-07T04:26:25;12.20;99.90
18654;DHT22;9456;47.824;16.228;2023-05-07T04:28:54;12.20;99.90
18654;DHT22;9456;47.824;16.228;2023-05-07T04:31:23;12.20;99.90
18654;DHT22;9456;47.824;16.228;2023-05-07T04:33:52;12.20;99.90
18654;DHT22;9456;47.824;16.228;2023-05-07T04:36:21;12.30;99.90
18654;DHT22;9456;47.824;16.228;2023-05-07T04:38:50;12.40;99.90
18654;DHT22;9456;47.824;16.228;2023-05-07T04:41:19;12.50;99.90
18654;DHT22;9456;47.824;16.228;2023-05-07T04:43:48;12.60;99.90
18654;DHT22;9456;47.824;16.228;2023-05-07T04:46:18;12.70;99.90
18654;DHT22;9456;47.824;16.228;2023-05-07T04:48:47;12.80;99.90
18654;DHT22;9456;47.824;16.228;2023-05-07T04:51:15;12.90;99.90
18654;DHT22;9456;47.824;16.228;2023-05-07T04:53:44;13.00;99.90
18654;DHT22;9456;47.824;16.228;2023-05-07T04:56:14;13.10;99.90
18654;DHT22;9456;47.824;16.228;2023-05-07T04:58:43;13.10;99.90
18654;DHT22;9456;47.824;16.228;2023-05-07T05:01:13;13.20;99.90
18654;DHT22;9456;47.824;16.228;2023-05-07T05:03:42;13.10;99.90
18654;DHT22;9456;47.824;16.228;2023-05-07T05:06:11;13.00;99.90
18654;DHT22;9456;47.824;16.228;2023-05-07T05:08:40;12.90;99.90
18654;DHT22;9456;47.824;16.228;2023-05-07T05:11:10;12.80;99.90
18654;DHT22;9456;47.824;16.228;2023-05-07T05:13:39;12.80;99.90
18654;DHT22;9456;47.824;16.228;2023-05-07T05:16:09;12.90;99.90
18654;DHT22;9456;47.824;16.228;2023-05-07T05:18:38;13.00;99.90
18654;DHT22;9456;47.824;16.228;2023-05-07T05:21:07;13.10;99.90
18654;DHT22;9456;47.824;16.228;2023-05-07T05:23:37;13.30;99.90
18654;DHT22;9456;47.824;16.228;2023-05-07T05:26:06;13.50;99.90
18654;DHT22;9456;47.824;16.228;2023-05-07T05:28:36;13.70;99.90
18654;DHT22;9456;47.824;16.228;2023-05-07T05:31:05;13.80;99.90
18654;DHT22;9456;47.824;16.228;2023-05-07T05:33:34;14.00;99.90
18654;DHT22;9456;47.824;16.228;2023-05-07T05:36:03;14.20;99.90
18654;DHT22;9456;47.824;16.228;2023-05-07T05:38:32;14.30;99.90
18654;DHT22;9456;47.824;16.228;2023-05-07T05:41:01;14.50;99.90
18654;DHT22;9456;47.824;16.228;2023-05-07T05:43:30;14.60;99.90
18654;DHT22;9456;47.824;16.228;2023-05-07T05:45:58;14.70;99.90
18654;DHT22;9456;47.824;16.228;2023-05-07T05:48:28;14.90;99.90
18654;DHT22;9456;47.824;16.228;2023-05-07T05:50:56;15.10;99.90
18654;DHT22;9456;47.824;16.228;2023-05-07T05:53:25;15.30;99.90
18654;DHT22;9456;47.824;16.228;2023-05-07T05:55:55;15.30;99.90
18654;DHT22;9456;47.824;16.228;2023-05-07T05:58:24;15.40;99.90
18654;DHT22;9456;47.824;16.228;2023-05-07T06:00:53;15.50;99.90
18654;DHT22;9456;47.824;16.228;2023-05-07T06:03:22;15.60;99.90
18654;DHT22;9456;47.824;16.228;2023-05-07T06:05:51;15.80;99.90
18654;DHT22;9456;47.824;16.228;2023-05-07T06:08:20;15.90;99.90
18654;DHT22;9456;47.824;16.228;2023-05-07T06:10:49;16.30;99.90
18654;DHT22;9456;47.824;16.228;2023-05-07T06:13:19;16.80;99.90
18654;DHT22;9456;47.824;16.228;2023-05-07T06:15:51;17.10;99.90
18654;DHT22;9456;47.824;16.228;2023-05-07T06:18:20;17.30;99.90
18654;DHT22;9456;47.824;16.228;2023-05-07T06:20:49;17.70;99.90
18654;DHT22;9456;47.824;16.228;2023-05-07T06:23:17;18.10;99.90
18654;DHT22;9456;47.824;16.228;2023-05-07T06:25:49;18.40;99.90
18654;DHT22;9456;47.824;16.228;2023-05-07T06:28:18;18.70;99.90
18654;DHT22;9456;47.824;16.228;2023-05-07T06:30:47;19.20;99.00
18654;DHT22;9456;47.824;16.228;2023-05-07T06:33:16;18.90;97.90
18654;DHT22;9456;47.824;16.228;2023-05-07T06:35:45;18.90;97.40
18654;DHT22;9456;47.824;16.228;2023-05-07T06:38:14;18.90;97.90
18654;DHT22;9456;47.824;16.228;2023-05-07T06:40:43;18.70;96.70
18654;DHT22;9456;47.824;16.228;2023-05-07T06:43:11;18.40;96.30
18654;DHT22;9456;47.824;16.228;2023-05-07T06:45:40;18.20;96.60
18654;DHT22;9456;47.824;16.228;2023-05-07T06:48:09;18.20;95.40
18654;DHT22;9456;47.824;16.228;2023-05-07T06:50:38;18.40;97.00
18654;DHT22;9456;47.824;16.228;2023-05-07T06:53:07;18.70;96.80
18654;DHT22;9456;47.824;16.228;2023-05-07T06:55:36;18.70;94.70
18654;DHT22;9456;47.824;16.228;2023-05-07T06:58:05;18.80;94.60
18654;DHT22;9456;47.824;16.228;2023-05-07T07:00:34;19.30;93.10
18654;DHT22;9456;47.824;16.228;2023-05-07T07:03:02;19.70;94.80
18654;DHT22;9456;47.824;16.228;2023-05-07T07:05:31;20.70;91.70
18654;DHT22;9456;47.824;16.228;2023-05-07T07:08:00;21.50;86.30
18654;DHT22;9456;47.824;16.228;2023-05-07T07:10:29;22.10;85.30
18654;DHT22;9456;47.824;16.228;2023-05-07T07:12:58;22.80;80.90
18654;DHT22;9456;47.824;16.228;2023-05-07T07:15:27;23.50;76.50
18654;DHT22;9456;47.824;16.228;2023-05-07T07:17:55;24.10;75.60
18654;DHT22;9456;47.824;16.228;2023-05-07T07:20:24;24.60;71.30
18654;DHT22;9456;47.824;16.228;2023-05-07T07:22:54;24.40;65.20
18654;DHT22;9456;47.824;16.228;2023-05-07T07:25:22;24.10;65.80
18654;DHT22;9456;47.824;16.228;2023-05-07T07:27:52;23.90;70.10
18654;DHT22;9456;47.824;16.228;2023-05-07T07:30:21;23.80;70.40
18654;DHT22;9456;47.824;16.228;2023-05-07T07:32:50;23.80;66.70
18654;DHT22;9456;47.824;16.228;2023-05-07T07:35:19;24.10;66.10
18654;DHT22;9456;47.824;16.228;2023-05-07T07:37:50;24.20;67.90
18654;DHT22;9456;47.824;16.228;2023-05-07T07:40:19;24.40;64.90
18654;DHT22;9456;47.824;16.228;2023-05-07T07:42:49;24.00;67.00
18654;DHT22;9456;47.824;16.228;2023-05-07T07:45:18;23.60;68.40
18654;DHT22;9456;47.824;16.228;2023-05-07T07:47:47;23.60;71.80
18654;DHT22;9456;47.824;16.228;2023-05-07T07:50:16;24.50;69.30
18654;DHT22;9456;47.824;16.228;2023-05-07T07:52:45;25.80;62.60
18654;DHT22;9456;47.824;16.228;2023-05-07T07:55:14;26.00;59.50
18654;DHT22;9456;47.824;16.228;2023-05-07T07:57:43;25.20;60.60
18654;DHT22;9456;47.824;16.228;2023-05-07T08:00:15;24.50;66.00
18654;DHT22;9456;47.824;16.228;2023-05-07T08:02:44;23.90;68.10
18654;DHT22;9456;47.824;16.228;2023-05-07T08:05:11;22.80;67.40
18654;DHT22;9456;47.824;16.228;2023-05-07T08:07:39;21.60;70.20
18654;DHT22;9456;47.824;16.228;2023-05-07T08:10:09;21.30;73.60
18654;DHT22;9456;47.824;16.228;2023-05-07T08:12:38;21.30;76.00
18654;DHT22;9456;47.824;16.228;2023-05-07T08:15:09;21.50;75.00
18654;DHT22;9456;47.824;16.228;2023-05-07T08:17:38;21.50;75.30
18654;DHT22;9456;47.824;16.228;2023-05-07T08:20:09;21.40;76.40
18654;DHT22;9456;47.824;16.228;2023-05-07T08:22:37;21.40;73.70
18654;DHT22;9456;47.824;16.228;2023-05-07T08:25:06;20.90;73.40
18654;DHT22;9456;47.824;16.228;2023-05-07T08:27:33;20.70;75.40
18654;DHT22;9456;47.824;16.228;2023-05-07T08:30:01;20.70;76.70
18654;DHT22;9456;47.824;16.228;2023-05-07T08:32:29;20.70;76.80
18654;DHT22;9456;47.824;16.228;2023-05-07T08:34:57;20.70;78.90
18654;DHT22;9456;47.824;16.228;2023-05-07T08:37:25;20.60;79.90
18654;DHT22;9456;47.824;16.228;2023-05-07T08:39:53;20.50;81.30
18654;DHT22;9456;47.824;16.228;2023-05-07T08:42:21;20.70;80.70
18654;DHT22;9456;47.824;16.228;2023-05-07T08:44:50;20.60;78.40
18654;DHT22;9456;47.824;16.228;2023-05-07T08:47:17;20.80;77.10
18654;DHT22;9456;47.824;16.228;2023-05-07T08:49:45;20.60;78.40
18654;DHT22;9456;47.824;16.228;2023-05-07T08:52:13;20.40;79.00
18654;DHT22;9456;47.824;16.228;2023-05-07T08:54:40;20.40;76.00
18654;DHT22;9456;47.824;16.228;2023-05-07T08:57:08;20.00;77.80
18654;DHT22;9456;47.824;16.228;2023-05-07T08:59:36;19.70;80.60
18654;DHT22;9456;47.824;16.228;2023-05-07T09:02:04;20.00;79.70
18654;DHT22;9456;47.824;16.228;2023-05-07T09:04:31;19.80;81.40
18654;DHT22;9456;47.824;16.228;2023-05-07T09:06:59;19.70;82.20
18654;DHT22;9456;47.824;16.228;2023-05-07T09:09:27;19.40;83.90
18654;DHT22;9456;47.824;16.228;2023-05-07T09:11:57;19.30;84.40
18654;DHT22;9456;47.824;16.228;2023-05-07T09:14:26;19.20;85.60
18654;DHT22;9456;47.824;16.228;2023-05-07T09:16:53;19.30;86.80
18654;DHT22;9456;47.824;16.228;2023-05-07T09:19:23;19.30;84.10
18654;DHT22;9456;47.824;16.228;2023-05-07T09:21:50;19.40;82.10
18654;DHT22;9456;47.824;16.228;2023-05-07T09:24:18;19.20;84.50
18654;DHT22;9456;47.824;16.228;2023-05-07T09:26:46;19.10;84.10
18654;DHT22;9456;47.824;16.228;2023-05-07T09:29:15;18.90;84.00
18654;DHT22;9456;47.824;16.228;2023-05-07T09:31:41;18.90;86.00
18654;DHT22;9456;47.824;16.228;2023-05-07T09:34:08;19.00;85.50
18654;DHT22;9456;47.824;16.228;2023-05-07T09:36:37;19.20;84.40
18654;DHT22;9456;47.824;16.228;2023-05-07T09:39:04;19.30;83.10
18654;DHT22;9456;47.824;16.228;2023-05-07T09:41:32;19.20;85.20
18654;DHT22;9456;47.824;16.228;2023-05-07T09:44:00;19.30;84.50
18654;DHT22;9456;47.824;16.228;2023-05-07T09:46:29;19.20;85.30
18654;DHT22;9456;47.824;16.228;2023-05-07T09:48:57;19.20;86.00
18654;DHT22;9456;47.824;16.228;2023-05-07T09:51:25;19.10;85.00
18654;DHT22;9456;47.824;16.228;2023-05-07T09:53:53;19.30;85.00
18654;DHT22;9456;47.824;16.228;2023-05-07T09:56:21;19.70;83.60
18654;DHT22;9456;47.824;16.228;2023-05-07T09:58:49;19.90;86.50
18654;DHT22;9456;47.824;16.228;2023-05-07T10:01:16;20.40;82.40
18654;DHT22;9456;47.824;16.228;2023-05-07T10:03:45;20.60;81.70
18654;DHT22;9456;47.824;16.228;2023-05-07T10:06:14;20.70;79.80
18654;DHT22;9456;47.824;16.228;2023-05-07T10:08:43;20.80;80.80
18654;DHT22;9456;47.824;16.228;2023-05-07T10:11:12;21.00;79.50
18654;DHT22;9456;47.824;16.228;2023-05-07T10:13:41;21.00;77.70
18654;DHT22;9456;47.824;16.228;2023-05-07T10:16:10;20.80;78.70
18654;DHT22;9456;47.824;16.228;2023-05-07T10:18:39;20.70;76.70
18654;DHT22;9456;47.824;16.228;2023-05-07T10:21:11;20.70;79.50
18654;DHT22;9456;47.824;16.228;2023-05-07T10:23:38;20.50;78.00
18654;DHT22;9456;47.824;16.228;2023-05-07T10:26:07;20.30;79.20
18654;DHT22;9456;47.824;16.228;2023-05-07T10:28:37;20.10;80.00
18654;DHT22;9456;47.824;16.228;2023-05-07T10:31:14;20.20;78.50
18654;DHT22;9456;47.824;16.228;2023-05-07T10:33:43;20.00;79.30
18654;DHT22;9456;47.824;16.228;2023-05-07T10:36:11;19.60;81.40
18654;DHT22;9456;47.824;16.228;2023-05-07T10:38:41;19.90;81.80
18654;DHT22;9456;47.824;16.228;2023-05-07T10:41:09;20.30;81.20
18654;DHT22;9456;47.824;16.228;2023-05-07T10:43:42;20.60;78.70
18654;DHT22;9456;47.824;16.228;2023-05-07T10:46:15;20.60;77.20
18654;DHT22;9456;47.824;16.228;2023-05-07T10:49:07;20.80;76.30
18654;DHT22;9456;47.824;16.228;2023-05-07T10:51:36;20.90;75.60
18654;DHT22;9456;47.824;16.228;2023-05-07T10:54:21;21.00;74.90
18654;DHT22;9456;47.824;16.228;2023-05-07T10:56:50;20.60;75.30
18654;DHT22;9456;47.824;16.228;2023-05-07T10:59:38;20.40;77.60
18654;DHT22;9456;47.824;16.228;2023-05-07T11:02:10;20.80;77.80
18654;DHT22;9456;47.824;16.228;2023-05-07T11:04:38;20.80;74.80
18654;DHT22;9456;47.824;16.228;2023-05-07T11:10:08;20.70;74.60
18654;DHT22;9456;47.824;16.228;2023-05-07T11:12:51;20.70;74.70
18654;DHT22;9456;47.824;16.228;2023-05-07T11:15:38;20.50;76.40
18654;DHT22;9456;47.824;16.228;2023-05-07T11:18:05;20.50;74.60
18654;DHT22;9456;47.824;16.228;2023-05-07T11:20:57;20.70;74.10
18654;DHT22;9456;47.824;16.228;2023-05-07T11:23:56;20.50;73.00
18654;DHT22;9456;47.824;16.228;2023-05-07T11:26:26;20.50;72.80
18654;DHT22;9456;47.824;16.228;2023-05-07T11:28:55;20.20;73.90
18654;DHT22;9456;47.824;16.228;2023-05-07T11:31:25;20.10;75.50
18654;DHT22;9456;47.824;16.228;2023-05-07T11:33:54;20.10;76.20
18654;DHT22;9456;47.824;16.228;2023-05-07T11:36:24;20.00;76.20
18654;DHT22;9456;47.824;16.228;2023-05-07T11:38:53;19.70;77.70
18654;DHT22;9456;47.824;16.228;2023-05-07T11:41:32;19.90;78.00
18654;DHT22;9456;47.824;16.228;2023-05-07T11:43:58;20.20;76.90
18654;DHT22;9456;47.824;16.228;2023-05-07T11:46:26;20.40;76.10
18654;DHT22;9456;47.824;16.228;2023-05-07T11:48:54;20.40;74.30
18654;DHT22;9456;47.824;16.228;2023-05-07T11:51:21;20.30;74.80
18654;DHT22;9456;47.824;16.228;2023-05-07T11:53:49;20.20;74.40
18654;DHT22;9456;47.824;16.228;2023-05-07T11:56:17;20.10;75.60
18654;DHT22;9456;47.824;16.228;2023-05-07T11:58:45;19.80;76.30
18654;DHT22;9456;47.824;16.228;2023-05-07T12:01:12;19.90;77.10
18654;DHT22;9456;47.824;16.228;2023-05-07T12:03:40;20.10;76.20
18654;DHT22;9456;47.824;16.228;2023-05-07T12:06:08;20.10;76.30
18654;DHT22;9456;47.824;16.228;2023-05-07T12:08:37;20.30;76.10
18654;DHT22;9456;47.824;16.228;2023-05-07T12:11:05;20.30;77.10
18654;DHT22;9456;47.824;16.228;2023-05-07T12:13:32;20.50;74.90
18654;DHT22;9456;47.824;16.228;2023-05-07T12:16:00;20.30;75.70
18654;DHT22;9456;47.824;16.228;2023-05-07T12:18:28;20.30;75.90
18654;DHT22;9456;47.824;16.228;2023-05-07T12:20:56;20.20;77.10
18654;DHT22;9456;47.824;16.228;2023-05-07T12:23:24;20.10;76.30
18654;DHT22;9456;47.824;16.228;2023-05-07T12:25:51;20.10;77.60
18654;DHT22;9456;47.824;16.228;2023-05-07T12:28:19;20.30;77.10
18654;DHT22;9456;47.824;16.228;2023-05-07T12:30:46;20.40;76.70
18654;DHT22;9456;47.824;16.228;2023-05-07T12:33:17;20.00;77.30
18654;DHT22;9456;47.824;16.228;2023-05-07T12:35:44;20.10;76.90
18654;DHT22;9456;47.824;16.228;2023-05-07T12:38:13;20.10;76.60
18654;DHT22;9456;47.824;16.228;2023-05-07T12:40:40;20.20;76.70
18654;DHT22;9456;47.824;16.228;2023-05-07T12:43:07;20.50;77.60
18654;DHT22;9456;47.824;16.228;2023-05-07T12:45:37;20.50;75.20
18654;DHT22;9456;47.824;16.228;2023-05-07T12:48:06;20.30;76.50
18654;DHT22;9456;47.824;16.228;2023-05-07T12:50:34;20.20;78.00
18654;DHT22;9456;47.824;16.228;2023-05-07T12:53:01;20.00;77.20
18654;DHT22;9456;47.824;16.228;2023-05-07T12:55:29;19.70;79.10
18654;DHT22;9456;47.824;16.228;2023-05-07T12:57:57;19.70;78.50
18654;DHT22;9456;47.824;16.228;2023-05-07T13:00:34;19.70;78.30
18654;DHT22;9456;47.824;16.228;2023-05-07T13:03:02;19.80;79.30
18654;DHT22;9456;47.824;16.228;2023-05-07T13:05:30;19.80;77.20
18654;DHT22;9456;47.824;16.228;2023-05-07T13:07:57;20.00;76.90
18654;DHT22;9456;47.824;16.228;2023-05-07T13:10:25;19.90;76.60
18654;DHT22;9456;47.824;16.228;2023-05-07T13:12:52;19.80;77.80
18654;DHT22;9456;47.824;16.228;2023-05-07T13:15:20;19.70;77.80
18654;DHT22;9456;47.824;16.228;2023-05-07T13:17:47;19.60;78.40
18654;DHT22;9456;47.824;16.228;2023-05-07T13:20:15;19.60;78.70
18654;DHT22;9456;47.824;16.228;2023-05-07T13:22:43;19.70;78.20
18654;DHT22;9456;47.824;16.228;2023-05-07T13:25:10;19.70;78.40
18654;DHT22;9456;47.824;16.228;2023-05-07T13:27:38;19.70;78.50
18654;DHT22;9456;47.824;16.228;2023-05-07T13:30:06;19.60;78.00
18654;DHT22;9456;47.824;16.228;2023-05-07T13:32:34;19.60;79.00
18654;DHT22;9456;47.824;16.228;2023-05-07T13:35:02;19.70;78.20
18654;DHT22;9456;47.824;16.228;2023-05-07T13:37:29;19.70;78.80
18654;DHT22;9456;47.824;16.228;2023-05-07T13:39:57;19.80;77.80
18654;DHT22;9456;47.824;16.228;2023-05-07T13:42:25;19.70;78.00
18654;DHT22;9456;47.824;16.228;2023-05-07T13:44:54;19.70;78.00
18654;DHT22;9456;47.824;16.228;2023-05-07T13:47:21;19.70;78.10
18654;DHT22;9456;47.824;16.228;2023-05-07T13:49:49;19.70;77.60
18654;DHT22;9456;47.824;16.228;2023-05-07T13:52:17;19.70;77.40
18654;DHT22;9456;47.824;16.228;2023-05-07T13:54:44;19.60;77.30
18654;DHT22;9456;47.824;16.228;2023-05-07T13:57:12;19.40;77.70
18654;DHT22;9456;47.824;16.228;2023-05-07T13:59:40;19.30;78.70
18654;DHT22;9456;47.824;16.228;2023-05-07T14:02:07;19.20;78.60
18654;DHT22;9456;47.824;16.228;2023-05-07T14:04:35;19.20;78.20
18654;DHT22;9456;47.824;16.228;2023-05-07T14:07:03;19.40;78.80
18654;DHT22;9456;47.824;16.228;2023-05-07T14:09:30;19.50;77.30
18654;DHT22;9456;47.824;16.228;2023-05-07T14:11:58;19.50;77.80
18654;DHT22;9456;47.824;16.228;2023-05-07T14:14:25;19.60;77.60
18654;DHT22;9456;47.824;16.228;2023-05-07T14:16:53;19.70;77.70
18654;DHT22;9456;47.824;16.228;2023-05-07T14:19:21;19.70;76.60
18654;DHT22;9456;47.824;16.228;2023-05-07T14:21:49;19.70;77.50
18654;DHT22;9456;47.824;16.228;2023-05-07T14:24:17;19.60;77.80
18654;DHT22;9456;47.824;16.228;2023-05-07T14:26:44;19.50;77.90
18654;DHT22;9456;47.824;16.228;2023-05-07T14:29:12;19.40;78.70
18654;DHT22;9456;47.824;16.228;2023-05-07T14:31:40;19.30;78.10
18654;DHT22;9456;47.824;16.228;2023-05-07T14:34:07;19.30;78.70
18654;DHT22;9456;47.824;16.228;2023-05-07T14:36:35;19.30;78.50
18654;DHT22;9456;47.824;16.228;2023-05-07T14:39:02;19.30;78.30
18654;DHT22;9456;47.824;16.228;2023-05-07T14:41:30;19.20;78.00
18654;DHT22;9456;47.824;16.228;2023-05-07T14:43:58;19.30;78.40
18654;DHT22;9456;47.824;16.228;2023-05-07T14:46:26;19.10;78.50
18654;DHT22;9456;47.824;16.228;2023-05-07T14:48:53;19.10;79.80
18654;DHT22;9456;47.824;16.228;2023-05-07T14:51:21;19.20;80.10
18654;DHT22;9456;47.824;16.228;2023-05-07T14:53:49;19.30;77.70
18654;DHT22;9456;47.824;16.228;2023-05-07T14:56:16;19.30;77.10
18654;DHT22;9456;47.824;16.228;2023-05-07T14:58:45;19.10;77.80
18654;DHT22;9456;47.824;16.228;2023-05-07T15:01:11;19.10;79.00
18654;DHT22;9456;47.824;16.228;2023-05-07T15:03:39;19.10;79.10
18654;DHT22;9456;47.824;16.228;2023-05-07T15:06:06;19.00;78.80
18654;DHT22;9456;47.824;16.228;2023-05-07T15:08:34;19.00;78.40
18654;DHT22;9456;47.824;16.228;2023-05-07T15:11:02;18.80;78.90
18654;DHT22;9456;47.824;16.228;2023-05-07T15:13:29;18.70;79.40
18654;DHT22;9456;47.824;16.228;2023-05-07T15:15:57;18.70;80.00
18654;DHT22;9456;47.824;16.228;2023-05-07T15:18:24;18.70;80.00
18654;DHT22;9456;47.824;16.228;2023-05-07T15:20:52;18.60;78.30
18654;DHT22;9456;47.824;16.228;2023-05-07T15:23:20;18.60;79.00
18654;DHT22;9456;47.824;16.228;2023-05-07T15:25:47;18.60;79.30
18654;DHT22;9456;47.824;16.228;2023-05-07T15:28:15;18.60;78.90
18654;DHT22;9456;47.824;16.228;2023-05-07T15:30:43;18.50;79.30
18654;DHT22;9456;47.824;16.228;2023-05-07T15:33:13;18.60;79.30
18654;DHT22;9456;47.824;16.228;2023-05-07T15:35:41;18.70;79.60
18654;DHT22;9456;47.824;16.228;2023-05-07T15:38:09;18.60;78.30
18654;DHT22;9456;47.824;16.228;2023-05-07T15:40:36;18.50;78.50
18654;DHT22;9456;47.824;16.228;2023-05-07T15:43:04;18.50;79.70